Airfield :
LOGIN :

Register | Disclaimer

   EN    FR    IT 

 










Legend :    VFR   Marginal VFR   IFR   Intensive IFR   Very Intensive IFR
Visi :
Ceiling :
>= 8 km
>= 3000ft
5 to 8 km
1000 to 3000 ft
1500m to 5 km
500 to 1000 ft
800 to 1500m
200 to 500 ft
< 800m
< 200 ft
Symbols :   Thunderstorms  Fog  Heavy snow  Heavy precipitations  Wind > 20 kt
SIGMETs :     Misc.  Thunderstorms  Icing  Turbulence  Mountain Waves  Volcanic Ashes






- Airport Elevation : 69 ft
- IATA code : AES


ENAL - Ålesund

CURRENT METAR :
  • 232020Z 06013KT 9999 -RA BKN020 04/03 Q0986

EXPIRED METARs :
  • 231950Z 06011KT 9999 -RA FEW014 BKN022 04/03 Q0986
  • 231920Z 06007KT 9999 SCT014 BKN024 05/03 Q0986
  • 231850Z 05007KT 9999 FEW009 BKN015 04/03 Q0986
  • 231820Z 04009KT 9999 FEW009 BKN015 04/03 Q0986
  • 231750Z 05009KT 9999 FEW009 BKN015 05/04 Q0986

TAF AMD TAF ENAL
Valid from the 23 at 17:00 until the 23 at 23:00 UTC


231741Z 2317/2323 06007KT 9999 FEW007 BKN015
TEMPO 2317/2323 RA BKN008



MET'MAP, your aeronautical weather chart ! - Copyright ORBIFLY December 2007 - Disclaimer

ORBIFLY MET'MAP TEAM :

Programming & Development : Alexandra Zaïnal
Original concept : Baudouin d'Aumeries
Technical & hardware support : Manuel Goepfert
Assistance : Marc-Olivier Méhu




SOURCES & CREDITS :

   NOAA